Terminal Aerodrome Forecast
Issued by NWS Grand Forks, ND

Home | Current Version | Previous Version | Text Only | Print | Product List | Glossary Off
Versions: 1 2 3 4 5 6 7 8 9 10 11 12 13 14 15 16 17 18 19 20

121
FTUS43 KFGF 160520
TAFFAR
TAF
KFAR 160520Z 1606/1706 12006KT P6SM VCSH OVC120
     FM161000 12007KT P6SM OVC045
      TEMPO 1610/1611 4SM SHRA OVC020
     FM161300 13006KT P6SM OVC008
      TEMPO 1613/1614 4SM SHRA OVC003
     FM161400 14006KT P6SM VCSH OVC008
     FM161900 33005KT P6SM OVC008
     FM170300 36006KT P6SM SCT030=

USA.gov is the U.S. government's official web portal to all federal, state and local government web resources and services.